Time;durP1;ratioP1;P1;durP2;ratioP2;P2;SDS_P1;SDS_P2;PMS_P1;PMS_P2;Temp;Humidity;BMP_temperature;BMP_pressure;BME280_temperature;BME280_humidity;BME280_pressure;Samples;Min_cycle;Max_cycle;Signal;HPM_P1;HPM_P2
2023/06/09 00:00:48;;;;;;;10.80;4.68;;;;;;;15.08;100.00;164508.75;5032387;28;20025;-65
2023/06/09 00:03:16;;;;;;;11.48;4.35;;;;;;;15.03;100.00;164496.63;5031036;28;20041;-65
2023/06/09 00:05:42;;;;;;;15.32;6.28;;;;;;;15.02;100.00;164492.53;5032558;28;20029;-65
2023/06/09 00:08:07;;;;;;;15.25;7.07;;;;;;;14.97;100.00;164479.00;5030991;28;20384;-65
2023/06/09 00:10:32;;;;;;;14.77;4.13;;;;;;;14.96;100.00;164476.28;5032580;28;20103;-65
2023/06/09 00:12:58;;;;;;;10.23;4.85;;;;;;;14.95;100.00;164474.97;5032446;28;20025;-65
2023/06/09 00:15:23;;;;;;;13.00;4.38;;;;;;;14.91;100.00;164464.09;5030950;28;20567;-66
2023/06/09 00:17:49;;;;;;;12.63;5.50;;;;;;;14.92;100.00;164466.81;5030686;28;20057;-66
2023/06/09 00:20:15;;;;;;;6.85;3.33;;;;;;;14.97;100.00;164479.00;5030974;28;20045;-65
2023/06/09 00:22:43;;;;;;;13.02;4.47;;;;;;;14.99;100.00;164484.44;5032289;28;20377;-65
2023/06/09 00:25:12;;;;;;;;;;;;;;;14.99;100.00;164485.75;5030998;28;20141;-66
2023/06/09 00:27:39;;;;;;;11.05;4.78;;;;;;;15.01;100.00;164489.81;5032287;28;19916;-65
2023/06/09 00:30:05;;;;;;;18.80;7.15;;;;;;;14.99;100.00;164485.75;5030803;28;20492;-65
2023/06/09 00:32:30;;;;;;;10.68;3.70;;;;;;;15.00;100.00;164488.47;5031915;28;20504;-65
2023/06/09 00:34:55;;;;;;;11.00;4.70;;;;;;;15.01;100.00;164489.81;5030469;28;20046;-66
2023/06/09 00:37:21;;;;;;;12.30;5.63;;;;;;;15.01;100.00;164489.81;5032119;28;20021;-65
2023/06/09 00:39:46;;;;;;;12.50;5.40;;;;;;;15.04;100.00;164499.28;5029896;28;20488;-67
2023/06/09 00:42:11;;;;;;;8.77;5.18;;;;;;;15.05;100.00;164500.66;5032376;28;20048;-66
2023/06/09 00:44:37;;;;;;;8.50;3.92;;;;;;;15.08;100.00;164508.75;5030191;28;20041;-66
2023/06/09 00:47:04;;;;;;;14.20;5.93;;;;;;;15.07;100.00;164506.09;5031410;28;20025;-67
2023/06/09 00:49:29;;;;;;;7.97;4.65;;;;;;;15.11;100.00;164516.91;5030257;28;20040;-66
2023/06/09 00:51:56;;;;;;;14.38;5.38;;;;;;;15.08;100.00;164508.75;5031664;28;20065;-66
2023/06/09 00:54:21;;;;;;;13.45;4.68;;;;;;;15.05;100.00;164500.66;5030280;28;20037;-66
2023/06/09 00:56:47;;;;;;;12.48;5.75;;;;;;;15.02;100.00;164493.91;5031261;28;20052;-66
2023/06/09 00:59:14;;;;;;;15.45;5.75;;;;;;;15.01;100.00;164489.81;5030232;28;20041;-65
2023/06/09 01:01:40;;;;;;;19.80;8.18;;;;;;;14.91;100.00;164465.50;5031339;28;20021;-66
2023/06/09 01:04:06;;;;;;;9.57;3.83;;;;;;;14.90;100.00;164462.78;5030124;28;20053;-66
2023/06/09 01:07:03;;;;;;;15.32;5.18;;;;;;;14.86;100.00;164451.91;5031405;28;20025;-66
2023/06/09 01:09:43;;;;;;;18.75;6.53;;;;;;;14.81;100.00;164438.41;5029849;28;20041;-65
2023/06/09 01:12:36;;;;;;;11.85;4.18;;;;;;;14.73;100.00;164416.75;5031520;28;20029;-66
2023/06/09 01:15:22;;;;;;;12.85;6.07;;;;;;;14.72;100.00;164414.03;5029999;28;20053;-66
2023/06/09 01:17:51;;;;;;;12.40;5.22;;;;;;;14.66;100.00;164399.19;5030979;28;20136;-66
2023/06/09 01:20:45;;;;;;;19.25;6.00;;;;;;;14.62;100.00;164386.94;5029696;28;20102;-66
2023/06/09 01:23:31;;;;;;;11.80;4.70;;;;;;;14.57;100.00;164376.09;5030128;28;20029;-66
2023/06/09 01:25:59;;;;;;;15.30;4.20;;;;;;;14.55;100.00;164369.34;5031285;28;20026;-67
2023/06/09 01:28:26;;;;;;;13.35;4.93;;;;;;;14.43;100.00;164338.22;5029100;28;20021;-66
2023/06/09 01:30:53;;;;;;;10.20;4.18;;;;;;;14.39;100.00;164328.75;5029409;28;20392;-66
2023/06/09 01:33:22;;;;;;;12.68;4.10;;;;;;;14.38;100.00;164326.03;5029761;28;20022;-66
2023/06/09 01:35:49;;;;;;;14.38;5.90;;;;;;;14.37;100.00;164323.31;5031084;28;20033;-66
2023/06/09 01:38:15;;;;;;;12.75;4.63;;;;;;;14.34;100.00;164313.84;5029205;28;20057;-66
2023/06/09 01:40:43;;;;;;;10.63;4.05;;;;;;;14.32;100.00;164308.47;5030546;28;20104;-66
2023/06/09 01:43:08;;;;;;;13.80;5.63;;;;;;;14.26;100.00;164294.91;5029810;28;20441;-66
2023/06/09 01:45:33;;;;;;;10.00;5.60;;;;;;;14.25;100.00;164292.25;5030683;28;20025;-66
2023/06/09 01:48:08;;;;;;;16.58;5.88;;;;;;;14.23;100.00;164286.81;5030585;28;20499;-66
2023/06/09 01:50:52;;;;;;;17.25;6.82;;;;;;;14.19;100.00;164275.97;5029631;28;20508;-66
2023/06/09 01:53:25;;;;;;;11.77;5.35;;;;;;;14.08;100.00;164246.25;5029242;28;20388;-66
2023/06/09 01:56:01;;;;;;;10.13;6.53;;;;;;;14.09;100.00;164248.94;5030505;28;20030;-66
2023/06/09 01:58:36;;;;;;;14.85;5.93;;;;;;;14.08;100.00;164246.25;5029503;28;20064;-66
2023/06/09 02:01:04;;;;;;;11.15;5.07;;;;;;;14.03;100.00;164232.72;5030487;28;20021;-66
2023/06/09 02:03:31;;;;;;;14.95;6.32;;;;;;;13.99;100.00;164221.88;5029263;28;20073;-66
2023/06/09 02:05:58;;;;;;;11.15;5.63;;;;;;;13.98;100.00;164220.56;5030818;28;20116;-66
2023/06/09 02:08:25;;;;;;;11.10;5.63;;;;;;;13.93;100.00;164208.38;5029090;28;20310;-66
2023/06/09 02:10:50;;;;;;;15.60;5.97;;;;;;;13.89;100.00;164197.53;5030665;28;20021;-66
2023/06/09 02:13:19;;;;;;;14.45;5.57;;;;;;;13.86;100.00;164189.44;5029181;28;20400;-66
2023/06/09 02:15:46;;;;;;;11.00;5.15;;;;;;;13.85;100.00;164186.72;5030333;28;20029;-66
2023/06/09 02:18:12;;;;;;;11.80;6.28;;;;;;;13.79;100.00;164170.50;5029240;28;20388;-67
2023/06/09 02:20:39;;;;;;;12.02;5.55;;;;;;;13.78;100.00;164169.13;5030228;28;20031;-65
2023/06/09 02:23:04;;;;;;;12.85;5.88;;;;;;;13.74;100.00;164156.94;5030459;28;20443;-66
2023/06/09 02:25:32;;;;;;;17.27;6.53;;;;;;;13.70;100.00;164146.16;5029042;28;20042;-65
2023/06/09 02:27:58;;;;;;;19.90;6.88;;;;;;;13.72;100.00;164151.56;5029975;28;20507;-66
2023/06/09 02:30:23;;;;;;;12.98;6.43;;;;;;;13.66;100.00;164136.69;5028896;28;20135;-66
2023/06/09 02:32:49;;;;;;;11.43;6.38;;;;;;;13.61;100.00;164124.50;5030264;28;20472;-66
2023/06/09 02:35:14;;;;;;;18.13;6.32;;;;;;;13.61;100.00;164123.19;5029022;28;20046;-65
2023/06/09 02:37:41;;;;;;;12.32;6.88;;;;;;;13.61;100.00;164124.50;5029827;28;20037;-65
2023/06/09 02:40:08;;;;;;;14.57;6.60;;;;;;;13.56;100.00;164111.00;5030102;28;20029;-65
2023/06/09 02:42:34;;;;;;;18.60;7.10;;;;;;;13.53;100.00;164102.88;5034385;28;20029;-66
2023/06/09 02:45:00;;;;;;;14.63;5.57;;;;;;;13.52;100.00;164100.16;5032420;28;20087;-65
2023/06/09 02:47:25;;;;;;;20.23;5.97;;;;;;;13.48;100.00;164089.34;5034407;28;20026;-67
2023/06/09 02:49:51;;;;;;;14.27;6.63;;;;;;;13.47;100.00;164086.66;5032626;28;20607;-66
2023/06/09 02:52:16;;;;;;;17.70;5.35;;;;;;;13.44;100.00;164078.56;5033926;28;20034;-66
2023/06/09 02:54:43;;;;;;;12.90;6.00;;;;;;;13.44;100.00;164078.56;5032140;28;20045;-67
2023/06/09 02:57:09;;;;;;;16.98;7.80;;;;;;;13.41;100.00;164070.44;5034367;28;20025;-67
2023/06/09 02:59:34;;;;;;;15.75;8.25;;;;;;;13.39;100.00;164065.00;5032155;28;20152;-67
2023/06/09 03:01:59;;;;;;;28.48;7.95;;;;;;;13.33;100.00;164050.06;5033476;28;20515;-67
2023/06/09 03:04:25;;;;;;;13.23;6.35;;;;;;;13.32;100.00;164048.75;5032463;28;20045;-67
2023/06/09 03:06:53;;;;;;;15.02;7.47;;;;;;;13.31;100.00;164046.03;5033320;28;20033;-66
2023/06/09 03:09:18;;;;;;;9.65;6.85;;;;;;;13.30;100.00;164043.31;5032183;28;20435;-67
2023/06/09 03:11:44;;;;;;;17.42;6.47;;;;;;;13.24;100.00;164027.09;5033592;28;20064;-67
2023/06/09 03:14:09;;;;;;;14.55;7.57;;;;;;;13.23;100.00;164024.38;5032244;28;20385;-67
2023/06/09 03:16:35;;;;;;;12.75;6.15;;;;;;;13.16;100.00;164006.84;5033347;28;20025;-66
2023/06/09 03:19:01;;;;;;;15.75;7.03;;;;;;;13.15;100.00;164002.75;5032044;28;20100;-66
2023/06/09 03:21:26;;;;;;;15.48;6.03;;;;;;;13.16;100.00;164005.47;5033772;28;20021;-66
2023/06/09 03:23:51;;;;;;;19.67;9.40;;;;;;;13.12;100.00;163996.00;5031428;28;20400;-67
2023/06/09 03:26:20;;;;;;;15.05;7.50;;;;;;;13.13;100.00;163998.72;5033687;28;20033;-65
2023/06/09 03:28:46;;;;;;;20.85;6.30;;;;;;;13.04;100.00;163973.03;5031797;28;20432;-66
2023/06/09 03:31:13;;;;;;;21.52;8.68;;;;;;;13.09;100.00;163986.53;5033422;28;20053;-66
2023/06/09 03:33:38;;;;;;;18.77;6.55;;;;;;;13.10;100.00;163989.25;5031829;28;20040;-66
2023/06/09 03:36:04;;;;;;;18.40;7.75;;;;;;;13.10;100.00;163989.25;5033277;28;20025;-66
2023/06/09 03:38:29;;;;;;;16.25;6.70;;;;;;;13.07;100.00;163981.16;5031217;28;20045;-66
2023/06/09 03:40:55;;;;;;;14.20;6.65;;;;;;;13.07;100.00;163981.16;5033163;28;20381;-66
2023/06/09 03:43:20;;;;;;;17.98;7.50;;;;;;;13.06;100.00;163978.47;5031672;28;20029;-66
2023/06/09 03:45:45;;;;;;;15.15;7.53;;;;;;;13.02;100.00;163970.31;5032391;28;20033;-66
2023/06/09 03:48:11;;;;;;;15.43;6.88;;;;;;;13.01;100.00;163967.63;5031615;28;20029;-66
2023/06/09 03:50:36;;;;;;;18.92;8.45;;;;;;;13.02;100.00;163970.31;5032676;28;20040;-64
2023/06/09 03:53:01;;;;;;;25.48;9.35;;;;;;;13.01;100.00;163966.28;5032634;28;20440;-65
2023/06/09 03:55:29;;;;;;;16.80;8.63;;;;;;;12.99;100.00;163960.88;5031411;28;20045;-65
2023/06/09 03:57:55;;;;;;;15.87;6.80;;;;;;;13.00;100.00;163964.91;5032833;28;20033;-65
2023/06/09 04:00:21;;;;;;;15.50;7.35;;;;;;;13.00;100.00;163964.91;5030826;28;20091;-65
2023/06/09 04:02:47;;;;;;;14.60;6.93;;;;;;;13.01;100.00;163967.63;5032605;28;20052;-65
2023/06/09 04:05:12;;;;;;;20.90;8.13;;;;;;;13.00;100.00;163964.91;5031259;28;20041;-65
2023/06/09 04:07:37;;;;;;;21.58;9.20;;;;;;;12.93;100.00;163945.97;5032330;28;20033;-67
2023/06/09 04:10:03;;;;;;;19.42;7.80;;;;;;;13.04;100.00;163973.03;5030902;28;20061;-66
2023/06/09 04:12:29;;;;;;;24.27;9.07;;;;;;;13.02;100.00;163970.31;5031591;28;20461;-66
2023/06/09 04:14:55;;;;;;;22.05;10.93;;;;;;;13.04;100.00;163974.38;5029511;28;20052;-66
2023/06/09 04:17:22;;;;;;;21.35;6.93;;;;;;;13.08;100.00;163983.81;5031988;28;20028;-66
2023/06/09 04:19:47;;;;;;;22.08;9.63;;;;;;;13.06;100.00;163979.78;5030326;28;20037;-66
2023/06/09 04:22:13;;;;;;;15.43;9.00;;;;;;;13.09;100.00;163986.53;5031916;28;20526;-66
2023/06/09 04:24:38;;;;;;;21.17;7.97;;;;;;;13.12;100.00;163994.66;5030078;28;20060;-66
2023/06/09 04:27:04;;;;;;;15.02;7.80;;;;;;;13.16;100.00;164005.47;5032426;28;20025;-66
2023/06/09 04:29:33;;;;;;;22.35;7.28;;;;;;;13.19;100.00;164013.59;5030043;28;20041;-66
2023/06/09 04:31:59;;;;;;;16.30;7.18;;;;;;;13.25;100.00;164029.81;5031976;28;20075;-66
2023/06/09 04:34:28;;;;;;;12.40;7.78;;;;;;;13.21;100.00;164017.63;5030456;28;20037;-66
2023/06/09 04:36:56;;;;;;;41.70;10.95;;;;;;;13.31;100.00;164044.69;5030894;28;20041;-65
2023/06/09 04:39:24;;;;;;;14.23;8.57;;;;;;;13.32;100.00;164048.75;5030364;28;20045;-65
2023/06/09 04:41:53;;;;;;;;;;;;;;;13.35;100.00;164054.16;5032612;28;20418;-65
2023/06/09 04:44:20;;;;;;;19.88;10.15;;;;;;;13.36;100.00;164056.88;5030434;28;19920;-64
2023/06/09 04:46:46;;;;;;;22.70;9.75;;;;;;;13.41;100.00;164070.44;5031825;28;20384;-65
2023/06/09 04:49:12;;;;;;;26.75;8.55;;;;;;;13.42;100.00;164073.13;5030617;28;20041;-65
2023/06/09 04:51:46;;;;;;;16.75;8.65;;;;;;;13.45;100.00;164081.22;5031321;28;20436;-65
2023/06/09 04:54:16;;;;;;;23.58;9.43;;;;;;;13.54;100.00;164105.56;5030488;28;20148;-65
2023/06/09 04:56:43;;;;;;;13.82;7.78;;;;;;;13.56;100.00;164111.00;5031904;28;20040;-65
2023/06/09 04:59:10;;;;;;;14.27;7.47;;;;;;;13.58;100.00;164116.41;5029950;28;20037;-65
2023/06/09 05:01:35;;;;;;;22.67;7.97;;;;;;;13.68;100.00;164142.09;5031611;28;20100;-65
2023/06/09 05:04:00;;;;;;;14.52;7.57;;;;;;;13.71;100.00;164148.84;5029532;28;20053;-65
2023/06/09 05:06:26;;;;;;;21.48;9.90;;;;;;;13.74;100.00;164158.31;5031241;28;20076;-65
2023/06/09 05:08:51;;;;;;;19.73;9.35;;;;;;;13.69;100.00;164143.44;5029628;28;20049;-65
2023/06/09 05:11:17;;;;;;;17.88;8.25;;;;;;;13.88;100.00;164194.84;5031703;28;20029;-65
2023/06/09 05:13:42;;;;;;;20.63;9.77;;;;;;;13.94;100.00;164211.09;5029422;28;20033;-66
2023/06/09 05:16:08;;;;;;;24.50;10.05;;;;;;;14.04;100.00;164235.38;5031518;28;20064;-65
2023/06/09 05:18:33;;;;;;;17.08;8.23;;;;;;;14.14;100.00;164262.47;5029969;28;20045;-65
2023/06/09 05:20:58;;;;;;;23.00;7.72;;;;;;;14.24;100.00;164289.53;5030617;28;20033;-65
2023/06/09 05:23:24;;;;;;;20.52;8.68;;;;;;;14.35;100.00;164316.56;5030073;28;20029;-68
2023/06/09 05:25:49;;;;;;;17.58;7.32;;;;;;;14.40;100.00;164330.13;5031120;28;20021;-67
2023/06/09 05:28:15;;;;;;;26.80;10.63;;;;;;;14.42;100.00;164335.50;5029752;28;20029;-63
2023/06/09 05:30:40;;;;;;;30.40;14.30;;;;;;;14.51;100.00;164358.53;5031323;28;20060;-62
2023/06/09 05:33:06;;;;;;;17.73;8.50;;;;;;;14.59;100.00;164381.53;5031480;28;20032;-63
2023/06/09 05:35:32;;;;;;;19.90;9.07;;;;;;;14.68;100.00;164403.22;5029482;28;20045;-63
2023/06/09 05:37:58;;;;;;;16.05;8.40;;;;;;;14.78;100.00;164430.25;5030927;28;20025;-62
2023/06/09 05:40:23;;;;;;;23.20;10.05;;;;;;;14.91;100.00;164464.09;5029567;28;20033;-63
2023/06/09 05:42:49;;;;;;;21.73;10.43;;;;;;;15.04;100.00;164497.94;5030532;28;20025;-64
2023/06/09 05:45:15;;;;;;;17.48;8.57;;;;;;;15.18;100.00;164534.50;5029481;28;20238;-63
2023/06/09 05:47:40;;;;;;;17.65;8.15;;;;;;;15.30;100.00;164565.66;5030821;28;20030;-63
2023/06/09 05:50:06;;;;;;;22.75;8.73;;;;;;;15.41;100.00;164594.06;5028970;28;20045;-64
2023/06/09 05:52:31;;;;;;;26.65;9.38;;;;;;;15.45;100.00;164606.22;5031288;28;20075;-63
2023/06/09 05:54:57;;;;;;;22.10;9.45;;;;;;;15.51;100.00;164622.50;5029175;28;20037;-63
2023/06/09 05:57:25;;;;;;;14.93;8.73;;;;;;;15.67;100.00;164664.47;5030632;28;20033;-64
2023/06/09 05:59:50;;;;;;;;;;;;;;;15.81;100.00;164699.66;5029707;28;20037;-63
2023/06/09 06:02:16;;;;;;;21.97;9.03;;;;;;;-146.58;100.00;69501.63;5030781;28;19923;-64
2023/06/09 06:04:41;;;;;;;21.85;8.43;;;;;;;15.81;100.00;164699.66;5028704;28;20517;-63
2023/06/09 06:07:07;;;;;;;17.48;9.50;;;;;;;16.02;100.00;164755.22;5030980;28;20045;-63
2023/06/09 06:09:32;;;;;;;20.13;9.80;;;;;;;-146.58;100.00;69501.63;5029366;28;20567;-63
2023/06/09 06:11:58;;;;;;;16.25;9.38;;;;;;;-146.58;100.00;69501.63;5030219;28;20033;-66
2023/06/09 06:14:23;;;;;;;15.32;8.85;;;;;;;16.56;100.00;164896.09;5029431;28;20041;-66
2023/06/09 06:16:48;;;;;;;18.02;8.85;;;;;;;-146.58;100.00;69501.63;5033216;28;20029;-66
2023/06/09 06:19:14;;;;;;;20.65;8.95;;;;;;;16.76;100.00;164950.28;5031615;28;20041;-65
2023/06/09 06:21:42;;;;;;;18.38;9.93;;;;;;;-146.58;100.00;69501.63;5032870;28;20350;-67
2023/06/09 06:24:08;;;;;;;15.63;7.03;;;;;;;17.16;100.00;165053.31;5032144;28;20034;-66
2023/06/09 06:26:34;;;;;;;19.83;10.15;;;;;;;-146.58;100.00;69501.63;5033442;28;20034;-66
2023/06/09 06:29:00;;;;;;;17.00;8.95;;;;;;;-146.58;100.00;69501.63;5031683;28;20064;-66
2023/06/09 06:31:28;;;;;;;13.93;8.18;;;;;;;-146.58;100.00;69501.63;5034373;28;20033;-66
2023/06/09 06:33:53;;;;;;;20.67;9.23;;;;;;;17.99;100.00;165272.91;5032676;28;20106;-66
2023/06/09 06:36:21;;;;;;;15.63;7.90;;;;;;;18.18;100.00;165323.06;5028783;28;20025;-66
2023/06/09 06:38:47;;;;;;;12.20;7.70;;;;;;;18.26;100.00;165342.03;5032620;28;20136;-65
2023/06/09 06:41:12;;;;;;;19.35;10.90;;;;;;;18.38;100.00;165374.63;5034178;28;20117;-66
2023/06/09 06:43:37;;;;;;;14.18;9.30;;;;;;;18.46;100.00;165394.94;5031969;28;20033;-66
2023/06/09 06:46:02;;;;;;;15.68;7.55;;;;;;;18.61;100.00;165435.63;5034152;28;20040;-66
2023/06/09 06:48:28;;;;;;;14.48;9.25;;;;;;;18.70;100.00;165460.03;5032720;28;20037;-71
2023/06/09 06:50:53;;;;;;;20.88;10.35;;;;;;;18.88;100.00;165506.13;5030587;28;20384;-66
2023/06/09 06:53:19;;;;;;;13.77;7.07;;;;;;;19.14;100.00;165574.03;5032034;28;20033;-66
2023/06/09 06:55:44;;;;;;;12.40;6.70;;;;;;;19.29;100.00;165613.34;5034066;28;20029;-66
2023/06/09 06:58:10;;;;;;;15.98;6.55;;;;;;;19.53;100.00;165677.13;5032354;28;20028;-66
2023/06/09 07:00:35;;;;;;;15.85;7.97;;;;;;;19.75;100.00;165735.47;5033938;28;20033;-66
2023/06/09 07:03:00;;;;;;;21.45;8.20;;;;;;;19.77;100.00;165739.56;5033528;28;20056;-66
2023/06/09 07:05:26;;;;;;;10.90;7.25;;;;;;;19.74;100.00;165731.41;5027950;28;20038;-66
2023/06/09 07:07:51;;;;;;;16.08;8.27;;;;;;;19.95;100.00;165788.44;5033287;28;20021;-66
2023/06/09 07:10:16;;;;;;;18.35;8.43;;;;;;;20.06;100.00;165815.59;5032307;28;20030;-66
2023/06/09 07:12:42;;;;;;;17.52;6.53;;;;;;;20.22;100.00;165857.66;5033385;28;20067;-66
2023/06/09 07:15:08;;;;;;;9.77;6.45;;;;;;;20.08;100.00;165822.38;5030905;28;20068;-66
2023/06/09 07:17:33;;;;;;;13.15;6.82;;;;;;;20.28;100.00;165875.34;5032291;28;20103;-64
2023/06/09 07:19:59;;;;;;;11.85;7.07;;;;;;;20.60;100.00;165959.47;5031180;28;20043;-65
2023/06/09 07:22:25;;;;;;;12.48;7.35;;;;;;;20.68;100.00;165979.84;5033163;28;20060;-66
2023/06/09 07:24:51;;;;;;;10.27;6.53;;;;;;;20.90;100.00;166038.25;5031857;28;20033;-66
2023/06/09 07:27:16;;;;;;;21.90;7.55;;;;;;;21.18;100.00;166110.22;5032250;28;20380;-66
2023/06/09 07:29:42;;;;;;;13.60;6.68;;;;;;;21.44;100.00;166179.50;5031426;28;20056;-66
2023/06/09 07:32:09;;;;;;;13.27;6.45;;;;;;;21.54;100.00;166206.69;5033651;28;20052;-66
2023/06/09 07:34:35;;;;;;;11.50;6.95;;;;;;;21.77;100.00;166266.50;5031561;28;20038;-66
2023/06/09 07:37:03;;;;;;;13.52;7.75;;;;;;;21.95;100.00;166312.66;5033314;28;20029;-66
2023/06/09 07:39:29;;;;;;;8.90;5.78;;;;;;;22.14;100.00;166364.31;5031484;28;20068;-66
2023/06/09 07:41:54;;;;;;;11.27;6.05;;;;;;;22.26;100.00;166395.56;5032914;28;20026;-66
2023/06/09 07:44:20;;;;;;;12.20;7.20;;;;;;;22.26;100.00;166395.56;5031559;28;20041;-66
2023/06/09 07:46:45;;;;;;;10.80;7.03;;;;;;;22.51;100.00;166460.81;5031618;28;20168;-66
2023/06/09 07:49:11;;;;;;;14.70;7.10;;;;;;;22.56;100.00;166474.44;5031318;28;20500;-65
2023/06/09 07:51:36;;;;;;;17.52;6.63;;;;;;;22.53;100.00;166464.88;5032425;28;20037;-66
2023/06/09 07:54:05;;;;;;;12.30;6.78;;;;;;;22.61;100.00;166486.63;5030963;28;20045;-66
2023/06/09 07:56:31;;;;;;;13.75;5.97;;;;;;;22.79;100.00;166534.16;5031909;28;20507;-66
2023/06/09 07:58:58;;;;;;;11.52;6.65;;;;;;;22.90;100.00;166564.09;5031277;28;20034;-66
2023/06/09 08:01:23;;;;;;;9.18;6.30;;;;;;;23.01;100.00;166592.63;5032948;28;20025;-66
2023/06/09 08:03:49;;;;;;;11.65;6.80;;;;;;;23.25;100.00;166655.22;5030186;28;20137;-66
2023/06/09 08:06:14;;;;;;;10.90;6.22;;;;;;;23.43;100.00;166704.16;5032665;28;20412;-66
2023/06/09 08:08:41;;;;;;;9.43;7.05;;;;;;;23.50;100.00;166720.44;5031142;28;20034;-66
2023/06/09 08:11:06;;;;;;;8.68;6.43;;;;;;;23.69;100.00;166770.75;5032609;28;20025;-66
2023/06/09 08:13:32;;;;;;;12.10;6.40;;;;;;;-146.58;100.00;69501.63;5031158;28;20378;-66
2023/06/09 08:15:57;;;;;;;12.13;6.63;;;;;;;-146.58;100.00;69501.63;5032126;28;20037;-66
2023/06/09 08:18:22;;;;;;;10.27;6.30;;;;;;;-146.58;100.00;69501.63;5030096;28;20040;-66
2023/06/09 08:20:48;;;;;;;10.23;5.15;;;;;;;-146.58;100.00;69501.63;5031772;28;20017;-66
2023/06/09 08:23:13;;;;;;;11.65;5.60;;;;;;;-146.58;100.00;69501.63;5031004;28;20427;-66
2023/06/09 08:25:38;;;;;;;9.32;5.65;;;;;;;-146.58;100.00;69501.63;5031001;28;20083;-66
2023/06/09 08:28:04;;;;;;;7.85;6.25;;;;;;;-146.58;100.00;69501.63;5029103;28;20033;-66
2023/06/09 08:30:30;;;;;;;11.77;4.97;;;;;;;-146.58;100.00;69501.63;5030451;28;20041;-67
2023/06/09 08:32:55;;;;;;;10.93;6.35;;;;;;;-146.58;100.00;69501.63;5031572;28;20040;-67
2023/06/09 08:35:21;;;;;;;9.82;5.97;;;;;;;-146.58;100.00;69501.63;5029954;28;20045;-67
2023/06/09 08:37:47;;;;;;;8.85;6.40;;;;;;;-146.58;100.00;69501.63;5030251;28;20507;-67
2023/06/09 08:40:12;;;;;;;10.57;6.45;;;;;;;-146.58;100.00;69501.63;5029203;28;20054;-67
2023/06/09 08:42:39;;;;;;;6.03;4.75;;;;;;;-146.58;100.00;69501.63;5030717;28;20025;-67
2023/06/09 08:45:05;;;;;;;7.95;5.05;;;;;;;-146.58;100.00;69501.63;5030679;28;20131;-66
2023/06/09 08:47:34;;;;;;;9.98;5.35;;;;;;;-146.58;100.00;69501.63;5031806;28;20083;-67
2023/06/09 08:50:02;;;;;;;10.95;5.95;;;;;;;-146.58;100.00;69501.63;5029977;28;20515;-66
2023/06/09 08:52:28;;;;;;;7.50;5.45;;;;;;;-146.58;100.00;69501.63;5031973;28;20025;-66
2023/06/09 08:54:56;;;;;;;7.47;5.95;;;;;;;-146.58;100.00;69501.63;5029872;28;20033;-67
2023/06/09 08:57:21;;;;;;;9.45;5.90;;;;;;;-146.58;100.00;69501.63;5031810;28;20112;-66
2023/06/09 08:59:48;;;;;;;8.93;4.97;;;;;;;-146.58;100.00;69501.63;5030232;28;20052;-67
2023/06/09 09:02:13;;;;;;;9.10;4.70;;;;;;;-146.58;100.00;69501.63;5031073;28;20053;-67
2023/06/09 09:04:40;;;;;;;8.65;5.25;;;;;;;-146.58;100.00;69501.63;5029833;28;20029;-67
2023/06/09 09:07:06;;;;;;;16.15;7.45;;;;;;;-146.58;100.00;69501.63;5031806;28;20025;-67
2023/06/09 09:09:31;;;;;;;6.00;5.30;;;;;;;-146.58;100.00;69501.63;5029627;28;20578;-66
2023/06/09 09:12:02;;;;;;;13.82;5.60;;;;;;;-146.58;100.00;69501.63;5031204;28;20051;-67
2023/06/09 09:14:27;;;;;;;4.65;4.20;;;;;;;-146.58;100.00;69501.63;5029983;28;20432;-67
2023/06/09 09:16:53;;;;;;;12.38;6.72;;;;;;;-146.58;100.00;69501.63;5030989;28;20017;-66
2023/06/09 09:19:30;;;;;;;11.05;5.07;;;;;;;-146.58;100.00;69501.63;5028290;28;20473;-67
2023/06/09 09:21:56;;;;;;;8.93;5.43;;;;;;;-146.58;100.00;69501.63;5029887;28;20126;-67
2023/06/09 09:24:29;;;;;;;7.03;4.78;;;;;;;-146.58;100.00;69501.63;5028655;28;20041;-67
2023/06/09 09:26:57;;;;;;;7.00;4.90;;;;;;;-146.58;100.00;69501.63;5030862;28;20017;-67
2023/06/09 09:29:28;;;;;;;12.65;5.50;;;;;;;-146.58;100.00;69501.63;5028662;28;20061;-67
2023/06/09 09:31:58;;;;;;;7.15;4.88;;;;;;;-146.58;100.00;69501.63;5030583;28;20025;-67
2023/06/09 09:34:25;;;;;;;11.65;5.43;;;;;;;-146.58;100.00;69501.63;5029685;28;20034;-67
2023/06/09 09:36:54;;;;;;;9.20;5.57;;;;;;;-146.58;100.00;69501.63;5030868;28;20052;-67
2023/06/09 09:39:20;;;;;;;9.50;5.22;;;;;;;-146.58;100.00;69501.63;5029105;28;20069;-67
2023/06/09 09:42:07;;;;;;;5.78;5.28;;;;;;;-146.58;100.00;69501.63;5030706;28;20036;-66
2023/06/09 09:44:36;;;;;;;10.35;5.15;;;;;;;-146.58;100.00;69501.63;5030032;28;20037;-68
2023/06/09 09:47:04;;;;;;;20.58;5.75;;;;;;;-146.58;100.00;69501.63;5029136;28;20030;-67
2023/06/09 09:49:30;;;;;;;6.05;5.13;;;;;;;-146.58;100.00;69501.63;5029333;28;20175;-68
2023/06/09 09:51:58;;;;;;;9.20;4.55;;;;;;;-146.58;100.00;69501.63;5030981;28;20029;-67
2023/06/09 09:54:26;;;;;;;9.90;5.22;;;;;;;-146.58;100.00;69501.63;5029265;28;20099;-67
2023/06/09 09:56:52;;;;;;;9.85;5.22;;;;;;;-146.58;100.00;69501.63;5029804;28;20029;-67
2023/06/09 09:59:18;;;;;;;10.38;5.55;;;;;;;-146.58;100.00;69501.63;5029347;28;20051;-67
2023/06/09 10:01:44;;;;;;;13.00;5.30;;;;;;;-146.58;100.00;69501.63;5029632;28;20480;-67
2023/06/09 10:04:10;;;;;;;9.95;5.47;;;;;;;-146.58;100.00;69501.63;5028790;28;20128;-67
2023/06/09 10:06:37;;;;;;;8.32;5.05;;;;;;;-146.58;100.00;69501.63;5029517;28;20108;-65
2023/06/09 10:09:04;;;;;;;;;;;;;;;-146.58;100.00;69501.63;5028393;28;20072;-67
2023/06/09 10:11:31;;;;;;;8.63;4.07;;;;;;;-146.58;100.00;69501.63;5030333;28;19913;-67
2023/06/09 10:13:59;;;;;;;6.75;5.15;;;;;;;-146.58;100.00;69501.63;5030822;28;20391;-66
2023/06/09 10:16:25;;;;;;;;;;;;;;;-146.58;100.00;69501.63;5029213;28;20136;-66
2023/06/09 10:18:50;;;;;;;10.45;4.55;;;;;;;-146.58;100.00;69501.63;5029280;28;20011;-66
2023/06/09 10:21:16;;;;;;;15.30;4.82;;;;;;;28.73;100.00;168101.13;5028809;28;20408;-67
2023/06/09 10:23:42;;;;;;;6.03;4.32;;;;;;;29.01;100.00;168174.72;5027358;28;20041;-67
2023/06/09 10:26:08;;;;;;;8.70;5.30;;;;;;;29.26;100.00;168240.16;5028223;28;20106;-66
2023/06/09 10:28:34;;;;;;;10.98;4.45;;;;;;;29.24;100.00;168234.69;5028941;28;20042;-66
2023/06/09 10:31:01;;;;;;;5.70;3.72;;;;;;;29.33;100.00;168259.28;5028947;28;20022;-67
2023/06/09 10:33:35;;;;;;;5.30;4.68;;;;;;;29.26;100.00;168240.16;5029234;28;20029;-67
2023/06/09 10:36:07;;;;;;;9.60;4.30;;;;;;;29.05;100.00;168185.66;5029580;28;20040;-67
2023/06/09 10:38:43;;;;;;;7.07;4.00;;;;;;;28.74;100.00;168102.53;5028495;28;20041;-66
2023/06/09 10:41:30;;;;;;;6.57;5.22;;;;;;;28.72;100.00;168098.41;5029578;28;20025;-67
2023/06/09 10:44:31;;;;;;;9.38;4.15;;;;;;;28.85;100.00;168131.16;5028776;28;20065;-66
2023/06/09 10:46:57;;;;;;;10.30;4.93;;;;;;;29.08;100.00;168192.47;5029119;28;20035;-67
2023/06/09 10:49:25;;;;;;;4.82;4.00;;;;;;;29.03;100.00;168180.19;5027307;28;20042;-67
2023/06/09 10:51:51;;;;;;;9.75;5.03;;;;;;;29.25;100.00;168237.44;5029820;28;20053;-67
2023/06/09 10:54:17;;;;;;;6.95;4.30;;;;;;;29.22;100.00;168230.63;5028637;28;20546;-67
2023/06/09 10:56:46;;;;;;;11.55;4.88;;;;;;;29.15;100.00;168210.19;5029867;28;20044;-68
2023/06/09 10:59:32;;;;;;;7.78;5.22;;;;;;;29.09;100.00;168196.53;5028210;28;20034;-66
2023/06/09 11:02:03;;;;;;;4.63;3.85;;;;;;;29.44;100.00;168289.31;5024136;28;20041;-67
2023/06/09 11:04:37;;;;;;;10.82;4.95;;;;;;;29.70;100.00;168356.13;5032391;28;20053;-67
2023/06/09 11:07:09;;;;;;;7.30;4.57;;;;;;;29.86;100.00;168399.69;5033471;28;20056;-67
2023/06/09 11:09:36;;;;;;;5.07;4.50;;;;;;;29.86;100.00;168399.69;5031685;28;20419;-67